Time;durP1;ratioP1;P1;durP2;ratioP2;P2;SDS_P1;SDS_P2;PMS_P1;PMS_P2;Temp;Humidity;BMP_temperature;BMP_pressure;BME280_temperature;BME280_humidity;BME280_pressure;Samples;Min_cycle;Max_cycle;Signal;HPM_P1;HPM_P2
2022/08/05 00:01:42;;;;;;;5.35;3.00;;;21.80;99.90;;;;;;5089621;28;20194;-72
2022/08/05 00:04:09;;;;;;;6.00;3.00;;;22.00;99.90;;;;;;5090243;28;20201;-72
2022/08/05 00:06:36;;;;;;;4.95;3.03;;;21.90;99.90;;;;;;5091858;28;20206;-72
2022/08/05 00:09:04;;;;;;;5.78;3.05;;;21.90;99.90;;;;;;5092588;28;20197;-72
2022/08/05 00:11:31;;;;;;;5.57;3.10;;;21.80;99.90;;;;;;5091442;28;20205;-72
2022/08/05 00:13:58;;;;;;;6.82;3.28;;;21.80;99.90;;;;;;5092258;28;20670;-72
2022/08/05 00:16:26;;;;;;;9.32;3.05;;;21.60;99.90;;;;;;5091832;28;20687;-72
2022/08/05 00:18:54;;;;;;;4.22;3.28;;;21.50;99.90;;;;;;5092273;28;20609;-71
2022/08/05 00:21:21;;;;;;;7.50;4.07;;;21.70;99.90;;;;;;5091407;28;20193;-72
2022/08/05 00:23:48;;;;;;;6.47;3.47;;;21.30;99.90;;;;;;5091619;28;20254;-71
2022/08/05 00:26:16;;;;;;;7.40;3.78;;;21.20;99.90;;;;;;5091677;28;20205;-72
2022/08/05 00:28:43;;;;;;;7.05;3.70;;;21.10;99.90;;;;;;5092161;28;20197;-71
2022/08/05 00:31:10;;;;;;;10.70;4.05;;;21.20;99.90;;;;;;5091373;28;20205;-72
2022/08/05 00:33:37;;;;;;;6.47;3.58;;;21.20;99.90;;;;;;5091519;28;20263;-71
2022/08/05 00:36:06;;;;;;;7.15;3.83;;;21.00;99.90;;;;;;5091621;28;20517;-71
2022/08/05 00:38:33;;;;;;;7.65;3.95;;;21.00;99.90;;;;;;5091415;28;20670;-72
2022/08/05 00:41:00;;;;;;;12.13;4.35;;;21.00;99.90;;;;;;5091939;28;20270;-72
2022/08/05 00:43:29;;;;;;;6.47;4.43;;;20.90;99.90;;;;;;5091346;28;20251;-71
2022/08/05 00:45:56;;;;;;;8.00;4.78;;;20.80;99.90;;;;;;5091110;28;20201;-72
2022/08/05 00:48:24;;;;;;;8.15;4.53;;;20.90;99.90;;;;;;5091811;28;20194;-72
2022/08/05 00:50:52;;;;;;;7.80;4.80;;;20.80;99.90;;;;;;5091161;28;20243;-71
2022/08/05 00:53:22;;;;;;;9.13;4.80;;;20.70;99.90;;;;;;5091691;28;20256;-71
2022/08/05 00:55:50;;;;;;;12.75;5.40;;;20.70;99.90;;;;;;5091123;28;20253;-72
2022/08/05 00:58:18;;;;;;;7.97;4.78;;;20.70;99.90;;;;;;5091687;28;20283;-71
2022/08/05 01:00:46;;;;;;;10.73;5.90;;;20.70;99.90;;;;;;5091175;28;20190;-70
2022/08/05 01:03:13;;;;;;;13.00;5.43;;;20.50;99.90;;;;;;5091506;28;20208;-70
2022/08/05 01:05:41;;;;;;;9.57;5.53;;;20.50;99.90;;;;;;5091088;28;20608;-69
2022/08/05 01:08:08;;;;;;;10.55;6.07;;;20.60;99.90;;;;;;5091811;28;20193;-70
2022/08/05 01:10:43;;;;;;;13.32;6.88;;;20.50;99.90;;;;;;5090782;28;20660;-70
2022/08/05 01:13:16;;;;;;;13.68;7.72;;;20.30;99.90;;;;;;5090823;28;20708;-70
2022/08/05 01:15:50;;;;;;;13.07;7.00;;;20.20;99.90;;;;;;5091321;28;20487;-70
2022/08/05 01:18:25;;;;;;;12.98;6.65;;;20.30;99.90;;;;;;5090591;28;20252;-69
2022/08/05 01:21:01;;;;;;;13.02;6.57;;;20.20;99.90;;;;;;5090911;28;20266;-70
2022/08/05 01:23:40;;;;;;;16.25;7.22;;;20.20;99.90;;;;;;5091412;28;20288;-70
2022/08/05 01:26:33;;;;;;;16.00;7.95;;;20.40;99.90;;;;;;5090586;28;20200;-70
2022/08/05 01:29:06;;;;;;;14.68;7.68;;;20.20;99.90;;;;;;5091359;28;20247;-69
2022/08/05 01:31:39;;;;;;;17.02;8.20;;;20.20;99.90;;;;;;5090078;28;20220;-70
2022/08/05 01:34:12;;;;;;;15.75;7.70;;;20.10;99.90;;;;;;5086481;28;20255;-70
2022/08/05 01:36:43;;;;;;;15.93;7.68;;;20.30;99.90;;;;;;5090512;28;20287;-70
2022/08/05 01:39:11;;;;;;;14.40;7.40;;;20.20;99.90;;;;;;5091832;28;20204;-70
2022/08/05 01:41:40;;;;;;;15.30;8.18;;;20.00;99.90;;;;;;5087661;28;20255;-70
2022/08/05 01:44:12;;;;;;;17.00;9.07;;;20.10;99.90;;;;;;5091779;28;20197;-69
2022/08/05 01:46:41;;;;;;;18.10;8.90;;;20.00;99.90;;;;;;5093406;28;20553;-70
2022/08/05 01:49:10;;;;;;;15.32;8.63;;;20.00;99.90;;;;;;5088099;28;20214;-70
2022/08/05 01:51:39;;;;;;;17.67;8.93;;;20.10;99.90;;;;;;5074368;28;20546;-70
2022/08/05 01:54:08;;;;;;;15.63;8.57;;;20.00;99.90;;;;;;5083712;28;20213;-70
2022/08/05 01:56:39;;;;;;;15.68;8.93;;;20.00;99.90;;;;;;5094457;28;20345;-70
2022/08/05 01:59:16;;;;;;;18.35;9.35;;;19.80;99.90;;;;;;5092446;28;20652;-70
2022/08/05 02:01:46;;;;;;;15.93;9.38;;;19.90;99.90;;;;;;5093751;28;20238;-70
2022/08/05 02:04:17;;;;;;;21.27;9.73;;;19.90;99.90;;;;;;5080428;28;20619;-69
2022/08/05 02:06:44;;;;;;;17.42;9.98;;;19.80;99.90;;;;;;5086127;28;20204;-70
2022/08/05 02:09:12;;;;;;;23.67;11.18;;;19.80;99.90;;;;;;5093458;28;20568;-70
2022/08/05 02:11:45;;;;;;;19.50;10.45;;;19.70;99.90;;;;;;5086578;28;20210;-69
2022/08/05 02:14:17;;;;;;;23.75;11.35;;;19.70;99.90;;;;;;5093478;28;20282;-69
2022/08/05 02:16:47;;;;;;;21.30;11.38;;;19.70;99.90;;;;;;5093965;28;20221;-70
2022/08/05 02:19:20;;;;;;;24.10;10.98;;;19.80;99.90;;;;;;5086158;28;20315;-69
2022/08/05 02:21:54;;;;;;;20.35;11.20;;;19.60;99.90;;;;;;5092823;28;20202;-70
2022/08/05 02:24:27;;;;;;;19.63;10.88;;;19.70;99.90;;;;;;5089406;28;20323;-69
2022/08/05 02:26:59;;;;;;;21.65;11.40;;;19.70;99.90;;;;;;5091743;28;20266;-70
2022/08/05 02:29:29;;;;;;;17.90;10.82;;;19.60;99.90;;;;;;5073983;28;20195;-70
2022/08/05 02:31:57;;;;;;;21.40;11.23;;;19.60;99.90;;;;;;5081615;28;20202;-70
2022/08/05 02:34:29;;;;;;;19.75;11.00;;;19.60;99.90;;;;;;5074011;28;20248;-70
2022/08/05 02:37:01;;;;;;;19.55;9.90;;;19.90;99.90;;;;;;5081020;28;20606;-70
2022/08/05 02:39:34;;;;;;;18.13;10.32;;;20.10;99.90;;;;;;5088743;28;20201;-70
2022/08/05 02:42:02;;;;;;;21.30;10.07;;;20.00;99.90;;;;;;5088394;28;20202;-70
2022/08/05 02:44:35;;;;;;;21.50;11.82;;;20.00;99.90;;;;;;5073925;28;20630;-70
2022/08/05 02:47:05;;;;;;;24.27;13.43;;;19.60;99.90;;;;;;5088193;28;20206;-71
2022/08/05 02:49:34;;;;;;;23.73;12.43;;;19.10;99.90;;;;;;5086993;28;20205;-70
2022/08/05 02:52:03;;;;;;;26.92;13.15;;;18.90;99.90;;;;;;5084372;28;20545;-70
2022/08/05 02:54:32;;;;;;;23.08;13.10;;;18.80;99.90;;;;;;5083475;28;20202;-70
2022/08/05 02:57:00;;;;;;;24.05;15.13;;;18.70;99.90;;;;;;5089084;28;20410;-70
2022/08/05 02:59:29;;;;;;;25.08;15.32;;;18.60;99.90;;;;;;5093070;28;20612;-69
2022/08/05 03:01:59;;;;;;;26.48;14.18;;;18.60;99.90;;;;;;5084155;28;20637;-69
2022/08/05 03:04:27;;;;;;;26.75;14.95;;;18.60;99.90;;;;;;5087478;28;20233;-69
2022/08/05 03:06:55;;;;;;;27.85;16.77;;;19.00;99.90;;;;;;5091195;28;20198;-69
2022/08/05 03:09:22;;;;;;;28.48;16.52;;;19.10;99.90;;;;;;5086066;28;20197;-69
2022/08/05 03:11:50;;;;;;;27.48;14.90;;;19.10;99.90;;;;;;5093073;28;20208;-69
2022/08/05 03:14:17;;;;;;;27.10;14.02;;;19.00;99.90;;;;;;5087066;28;20242;-69
2022/08/05 03:16:44;;;;;;;25.92;14.60;;;18.90;99.90;;;;;;5092981;28;20198;-69
2022/08/05 03:19:13;;;;;;;27.17;13.90;;;18.90;99.90;;;;;;5090849;28;20194;-69
2022/08/05 03:21:40;;;;;;;24.42;13.88;;;19.00;99.90;;;;;;5091241;28;20648;-69
2022/08/05 03:24:08;;;;;;;25.60;14.68;;;19.10;99.90;;;;;;5081336;28;20589;-69
2022/08/05 03:26:35;;;;;;;21.70;13.20;;;19.00;99.90;;;;;;5086354;28;20237;-69
2022/08/05 03:29:03;;;;;;;25.23;13.05;;;19.10;99.90;;;;;;5093008;28;20237;-69
2022/08/05 03:31:30;;;;;;;21.10;12.82;;;18.80;99.90;;;;;;5083949;28;20220;-69
2022/08/05 03:33:58;;;;;;;21.85;13.25;;;18.90;99.90;;;;;;5079418;28;20194;-69
2022/08/05 03:36:26;;;;;;;25.80;12.43;;;19.00;99.90;;;;;;5088138;28;20194;-69
2022/08/05 03:38:53;;;;;;;23.05;12.55;;;18.90;99.90;;;;;;5078715;28;20265;-69
2022/08/05 03:41:20;;;;;;;23.63;13.15;;;19.20;99.90;;;;;;5070176;28;20574;-69
2022/08/05 03:43:47;;;;;;;22.60;12.75;;;19.30;99.90;;;;;;5069948;28;20702;-70
2022/08/05 03:46:14;;;;;;;24.98;12.90;;;19.40;99.90;;;;;;5084194;28;20233;-70
2022/08/05 03:48:42;;;;;;;22.08;11.90;;;19.10;99.90;;;;;;5082661;28;20267;-69
2022/08/05 03:51:13;;;;;;;20.77;12.95;;;19.10;99.90;;;;;;5086964;28;20194;-70
2022/08/05 03:53:48;;;;;;;23.00;12.68;;;19.00;99.90;;;;;;5071323;28;20212;-70
2022/08/05 03:56:22;;;;;;;21.27;12.50;;;18.90;99.90;;;;;;5072236;28;20198;-69
2022/08/05 03:58:50;;;;;;;21.25;12.35;;;18.80;99.90;;;;;;5070766;28;20856;-69
2022/08/05 04:01:19;;;;;;;21.95;11.60;;;19.00;99.90;;;;;;5072010;28;20248;-69
2022/08/05 04:03:49;;;;;;;22.15;12.48;;;19.10;99.90;;;;;;5081149;28;20649;-70
2022/08/05 04:06:18;;;;;;;24.13;12.57;;;19.10;99.90;;;;;;5089914;28;20240;-69
2022/08/05 04:08:47;;;;;;;20.88;13.07;;;19.20;99.90;;;;;;5088244;28;20615;-70
2022/08/05 04:11:14;;;;;;;21.92;12.98;;;19.20;99.90;;;;;;5084876;28;20197;-75
2022/08/05 04:13:42;;;;;;;20.90;12.95;;;19.20;99.90;;;;;;5084710;28;20251;-74
2022/08/05 04:16:09;;;;;;;20.80;12.95;;;19.10;99.90;;;;;;5091719;28;20412;-75
2022/08/05 04:18:38;;;;;;;22.45;13.02;;;19.00;99.90;;;;;;5089855;28;20257;-75
2022/08/05 04:21:06;;;;;;;18.95;12.38;;;19.10;99.90;;;;;;5087320;28;20559;-75
2022/08/05 04:23:35;;;;;;;21.40;11.77;;;19.10;99.90;;;;;;5087208;28;20258;-75
2022/08/05 04:26:04;;;;;;;19.98;11.18;;;19.10;99.90;;;;;;5091399;28;20205;-75
2022/08/05 04:28:31;;;;;;;21.35;12.30;;;19.00;99.90;;;;;;5092263;28;20247;-75
2022/08/05 04:30:58;;;;;;;23.52;12.15;;;19.10;99.90;;;;;;5088844;28;20198;-75
2022/08/05 04:33:25;;;;;;;21.23;13.13;;;19.00;99.90;;;;;;5071946;28;20230;-74
2022/08/05 04:35:52;;;;;;;22.77;13.18;;;19.00;99.90;;;;;;5071956;28;20202;-75
2022/08/05 04:38:19;;;;;;;24.27;14.23;;;19.00;99.90;;;;;;5070632;28;20500;-75
2022/08/05 04:40:46;;;;;;;24.35;13.95;;;19.10;99.90;;;;;;5071856;28;20285;-75
2022/08/05 04:43:14;;;;;;;23.67;13.38;;;19.00;99.90;;;;;;5071499;28;20198;-75
2022/08/05 04:45:41;;;;;;;24.40;13.82;;;19.10;99.90;;;;;;5084101;28;20762;-75
2022/08/05 04:48:10;;;;;;;23.08;13.73;;;19.00;99.90;;;;;;5090875;28;20237;-75
2022/08/05 04:50:41;;;;;;;22.45;13.95;;;19.10;99.90;;;;;;5090523;28;20276;-75
2022/08/05 04:53:09;;;;;;;23.25;14.48;;;19.00;99.90;;;;;;5083222;28;20202;-75
2022/08/05 04:55:37;;;;;;;25.45;15.65;;;19.00;99.90;;;;;;5078743;28;20626;-75
2022/08/05 04:58:04;;;;;;;25.52;14.57;;;19.00;99.90;;;;;;5071819;28;20711;-75
2022/08/05 05:00:33;;;;;;;27.15;14.60;;;18.90;99.90;;;;;;5070948;28;20664;-75
2022/08/05 05:03:00;;;;;;;25.25;14.60;;;19.00;99.90;;;;;;5071306;28;20202;-74
2022/08/05 05:05:27;;;;;;;24.63;13.60;;;19.00;99.90;;;;;;5070771;28;20226;-75
2022/08/05 05:07:55;;;;;;;24.40;14.07;;;18.90;99.90;;;;;;5070747;28;20247;-75
2022/08/05 05:10:22;;;;;;;25.05;14.07;;;18.90;99.90;;;;;;5071475;28;20289;-75
2022/08/05 05:12:49;;;;;;;22.85;14.50;;;18.90;99.90;;;;;;5070248;28;20260;-75
2022/08/05 05:15:16;;;;;;;26.10;15.18;;;18.90;99.90;;;;;;5070021;28;20214;-74
2022/08/05 05:17:45;;;;;;;22.38;13.48;;;19.00;99.90;;;;;;5070284;28;20257;-75
2022/08/05 05:20:13;;;;;;;24.15;13.45;;;19.10;99.90;;;;;;5090902;28;20194;-75
2022/08/05 05:22:41;;;;;;;20.85;12.27;;;19.30;99.90;;;;;;5090354;28;20259;-75
2022/08/05 05:25:09;;;;;;;20.15;12.70;;;19.40;99.90;;;;;;5084506;28;20190;-75
2022/08/05 05:27:37;;;;;;;24.88;13.38;;;19.60;99.90;;;;;;5090705;28;20216;-75
2022/08/05 05:30:04;;;;;;;22.95;13.10;;;19.70;99.90;;;;;;5071906;28;20202;-75
2022/08/05 05:32:31;;;;;;;22.45;12.70;;;19.80;99.90;;;;;;5070327;28;20202;-75
2022/08/05 05:35:00;;;;;;;23.15;13.85;;;19.80;99.90;;;;;;5091927;28;20247;-75
2022/08/05 05:37:26;;;;;;;24.35;14.02;;;19.80;99.90;;;;;;5089393;28;20616;-75
2022/08/05 05:39:53;;;;;;;21.38;13.73;;;19.50;99.90;;;;;;5091321;28;20197;-75
2022/08/05 05:42:20;;;;;;;24.25;14.15;;;19.60;99.90;;;;;;5090397;28;20194;-75
2022/08/05 05:44:47;;;;;;;22.85;13.38;;;19.80;99.90;;;;;;5091045;28;20254;-75
2022/08/05 05:47:14;;;;;;;20.90;13.02;;;20.00;99.90;;;;;;5089725;28;20219;-74
2022/08/05 05:49:41;;;;;;;22.60;13.38;;;19.80;99.90;;;;;;5089993;28;20249;-75
2022/08/05 05:52:09;;;;;;;24.20;13.50;;;19.90;99.90;;;;;;5090840;28;20240;-75
2022/08/05 05:54:37;;;;;;;24.20;13.75;;;19.90;99.90;;;;;;5090303;28;20206;-75
2022/08/05 05:57:05;;;;;;;21.92;14.50;;;20.00;99.90;;;;;;5091112;28;20239;-75
2022/08/05 05:59:32;;;;;;;22.75;12.95;;;20.00;99.90;;;;;;5090416;28;20626;-75
2022/08/05 06:01:59;;;;;;;22.25;13.27;;;19.80;99.90;;;;;;5091033;28;20198;-75
2022/08/05 06:04:26;;;;;;;23.27;13.10;;;20.00;99.90;;;;;;5090986;28;20263;-74
2022/08/05 06:06:53;;;;;;;21.88;12.73;;;19.80;99.90;;;;;;5091129;28;20233;-74
2022/08/05 06:09:21;;;;;;;23.30;13.70;;;19.80;99.90;;;;;;5089147;28;20668;-75
2022/08/05 06:11:48;;;;;;;23.52;13.75;;;19.70;99.90;;;;;;5089532;28;20220;-75
2022/08/05 06:14:15;;;;;;;23.42;12.65;;;19.50;99.90;;;;;;5080988;28;20645;-75
2022/08/05 06:16:42;;;;;;;21.50;13.88;;;19.40;99.90;;;;;;5071075;28;20195;-76
2022/08/05 06:19:09;;;;;;;21.77;12.27;;;19.20;99.90;;;;;;5069530;28;20219;-76
2022/08/05 06:21:37;;;;;;;22.15;13.65;;;19.10;99.90;;;;;;5071017;28;20202;-76
2022/08/05 06:24:05;;;;;;;24.48;13.65;;;18.80;99.90;;;;;;5074078;28;20206;-76
2022/08/05 06:26:33;;;;;;;21.00;13.77;;;18.80;99.90;;;;;;5073965;28;20272;-76
2022/08/05 06:29:00;;;;;;;24.63;13.10;;;18.60;99.90;;;;;;5073917;28;20237;-76
2022/08/05 06:31:27;;;;;;;24.25;13.80;;;18.60;99.90;;;;;;5073686;28;20574;-76
2022/08/05 06:33:55;;;;;;;22.75;14.30;;;18.70;99.90;;;;;;5073964;28;20290;-76
2022/08/05 06:36:22;;;;;;;23.40;14.32;;;18.50;99.90;;;;;;5073869;28;20248;-76
2022/08/05 06:38:52;;;;;;;22.08;13.35;;;18.40;99.90;;;;;;5074028;28;20267;-76
2022/08/05 06:41:19;;;;;;;19.95;14.15;;;18.40;99.90;;;;;;5073797;28;20271;-76
2022/08/05 06:43:48;;;;;;;19.25;13.23;;;18.30;99.90;;;;;;5073235;28;20346;-75
2022/08/05 06:46:15;;;;;;;20.20;12.85;;;18.40;99.90;;;;;;5074413;28;20210;-75
2022/08/05 06:48:42;;;;;;;21.92;12.25;;;18.30;99.90;;;;;;5073688;28;20214;-75
2022/08/05 06:51:09;;;;;;;23.85;14.70;;;18.20;99.90;;;;;;5073917;28;20732;-76
2022/08/05 06:53:36;;;;;;;22.95;13.45;;;18.10;99.90;;;;;;5074211;28;20615;-76
2022/08/05 06:56:04;;;;;;;19.23;12.10;;;18.10;99.90;;;;;;5073714;28;20206;-76
2022/08/05 06:58:31;;;;;;;19.83;11.85;;;18.20;99.90;;;;;;5072926;28;20218;-76
2022/08/05 07:01:00;;;;;;;19.45;11.18;;;18.10;99.90;;;;;;5073901;28;20206;-76
2022/08/05 07:03:27;;;;;;;18.52;12.07;;;18.10;99.90;;;;;;5082705;28;20201;-76
2022/08/05 07:05:54;;;;;;;18.77;12.15;;;18.10;99.90;;;;;;5093314;28;20713;-75
2022/08/05 07:08:22;;;;;;;18.52;12.50;;;18.20;99.90;;;;;;5092251;28;20237;-75
2022/08/05 07:10:49;;;;;;;18.20;11.48;;;18.20;99.90;;;;;;5082679;28;20199;-75
2022/08/05 07:18:45;;;;;;;20.38;11.88;;;18.50;99.90;;;;;;5071854;28;20244;-75
2022/08/05 07:21:12;;;;;;;19.58;10.73;;;18.30;99.90;;;;;;5073141;28;20651;-75
2022/08/05 07:23:39;;;;;;;13.77;9.25;;;18.50;99.90;;;;;;5073297;28;20230;-71
2022/08/05 07:26:06;;;;;;;16.75;9.27;;;18.60;99.90;;;;;;5085061;28;20206;-70
2022/08/05 07:28:33;;;;;;;17.05;9.95;;;18.70;99.90;;;;;;5093628;28;20202;-70
2022/08/05 07:31:02;;;;;;;14.15;9.50;;;18.90;99.90;;;;;;5091725;28;20213;-71
2022/08/05 07:33:29;;;;;;;17.27;9.02;;;19.00;99.90;;;;;;5092639;28;20274;-71
2022/08/05 07:35:55;;;;;;;15.15;9.13;;;19.00;99.90;;;;;;5093190;28;20247;-71
2022/08/05 07:38:22;;;;;;;14.55;8.80;;;19.30;99.90;;;;;;5091193;28;20324;-71
2022/08/05 07:40:49;;;;;;;12.40;8.35;;;19.40;99.90;;;;;;5093044;28;20233;-71
2022/08/05 07:43:16;;;;;;;11.75;7.78;;;19.80;99.90;;;;;;5091617;28;20194;-71
2022/08/05 07:45:43;;;;;;;13.00;7.95;;;19.60;99.90;;;;;;5093071;28;20198;-71
2022/08/05 07:48:12;;;;;;;11.55;7.95;;;19.50;99.90;;;;;;5091654;28;20651;-71
2022/08/05 07:50:39;;;;;;;11.93;8.18;;;19.30;99.90;;;;;;5092352;28;20644;-71
2022/08/05 07:53:06;;;;;;;11.75;7.97;;;19.30;99.90;;;;;;5087972;28;20251;-71
2022/08/05 07:55:33;;;;;;;11.70;7.57;;;19.30;99.90;;;;;;5092327;28;20201;-71
2022/08/05 07:58:00;;;;;;;10.77;7.88;;;19.30;99.90;;;;;;5075731;28;20211;-71
2022/08/05 08:00:27;;;;;;;14.38;8.50;;;19.30;99.90;;;;;;5072099;28;20218;-71
2022/08/05 08:02:54;;;;;;;11.05;7.50;;;19.40;99.90;;;;;;5075715;28;20604;-71
2022/08/05 08:05:22;;;;;;;12.30;8.73;;;19.50;99.90;;;;;;5084376;28;20242;-71
2022/08/05 08:07:49;;;;;;;11.90;8.00;;;19.40;99.90;;;;;;5093309;28;20281;-71
2022/08/05 08:10:16;;;;;;;12.02;7.72;;;19.50;99.90;;;;;;5082300;28;20202;-71
2022/08/05 08:12:44;;;;;;;11.63;8.30;;;19.40;99.90;;;;;;5089892;28;20205;-71
2022/08/05 08:15:11;;;;;;;11.45;7.68;;;19.20;99.90;;;;;;5092184;28;20240;-71
2022/08/05 08:17:38;;;;;;;10.52;7.28;;;19.10;99.90;;;;;;5090868;28;20201;-71
2022/08/05 08:20:06;;;;;;;14.05;8.65;;;18.90;99.90;;;;;;5091829;28;20225;-71
2022/08/05 08:22:34;;;;;;;12.82;9.68;;;18.90;99.90;;;;;;5090028;28;20193;-71
2022/08/05 08:25:01;;;;;;;13.45;9.35;;;18.90;99.90;;;;;;5076586;28;20236;-71
2022/08/05 08:27:29;;;;;;;11.27;9.63;;;19.00;99.90;;;;;;5071700;28;20247;-71
2022/08/05 08:29:56;;;;;;;14.00;10.23;;;19.00;99.90;;;;;;5071663;28;20310;-72
2022/08/05 08:32:23;;;;;;;14.82;10.77;;;19.30;99.90;;;;;;5071384;28;20199;-71
2022/08/05 08:34:50;;;;;;;14.68;11.10;;;19.40;99.90;;;;;;5071038;28;20195;-71
2022/08/05 08:37:18;;;;;;;14.80;11.25;;;19.00;99.90;;;;;;5071740;28;20293;-71
2022/08/05 08:39:47;;;;;;;13.88;9.95;;;19.00;99.90;;;;;;5070748;28;20268;-71
2022/08/05 08:42:14;;;;;;;13.10;9.48;;;19.00;99.90;;;;;;5071483;28;20234;-71
2022/08/05 08:44:44;;;;;;;12.05;8.07;;;19.00;99.90;;;;;;5070681;28;20245;-71
2022/08/05 08:47:12;;;;;;;9.23;7.07;;;18.80;99.90;;;;;;5071489;28;20233;-71
2022/08/05 08:49:45;;;;;;;13.95;7.10;;;18.90;99.90;;;;;;5070639;28;20252;-71
2022/08/05 08:52:13;;;;;;;11.30;6.78;;;18.90;99.90;;;;;;5071230;28;20285;-71
2022/08/05 08:54:42;;;;;;;10.10;6.88;;;18.60;99.90;;;;;;5071077;28;20614;-71
2022/08/05 08:57:11;;;;;;;9.40;6.50;;;18.80;99.90;;;;;;5071268;28;20198;-71
2022/08/05 08:59:38;;;;;;;9.15;6.28;;;18.90;99.90;;;;;;5070561;28;20696;-71
2022/08/05 09:02:06;;;;;;;12.07;6.65;;;19.00;99.90;;;;;;5071068;28;20547;-71
2022/08/05 09:04:36;;;;;;;13.07;7.22;;;19.20;99.90;;;;;;5070512;28;20675;-71
2022/08/05 09:07:05;;;;;;;9.50;6.68;;;19.10;99.90;;;;;;5082384;28;20218;-71
2022/08/05 09:09:32;;;;;;;11.98;7.07;;;19.10;99.90;;;;;;5086303;28;20573;-71
2022/08/05 09:11:59;;;;;;;9.52;6.97;;;19.20;99.90;;;;;;5078465;28;20206;-71
2022/08/05 09:14:27;;;;;;;10.40;7.18;;;19.20;99.90;;;;;;5079642;28;20274;-71
2022/08/05 09:16:55;;;;;;;10.48;7.05;;;19.30;99.90;;;;;;5090279;28;20384;-71
2022/08/05 09:19:22;;;;;;;12.15;8.23;;;19.20;99.90;;;;;;5088917;28;20253;-72
2022/08/05 09:21:49;;;;;;;12.10;8.57;;;19.20;99.90;;;;;;5091003;28;20198;-71
2022/08/05 09:24:16;;;;;;;13.73;9.85;;;19.00;99.90;;;;;;5082918;28;20292;-71
2022/08/05 09:26:47;;;;;;;14.75;10.02;;;18.80;99.90;;;;;;5090440;28;20606;-71
2022/08/05 09:29:14;;;;;;;15.25;11.50;;;18.70;99.90;;;;;;5091401;28;20215;-71
2022/08/05 09:31:43;;;;;;;14.90;10.80;;;18.70;99.90;;;;;;5091001;28;20610;-71
2022/08/05 09:34:12;;;;;;;15.70;11.32;;;18.60;99.90;;;;;;5090160;28;20633;-71
2022/08/05 09:36:44;;;;;;;14.60;11.20;;;18.90;99.90;;;;;;5091751;28;20299;-71
2022/08/05 09:39:12;;;;;;;13.90;10.23;;;18.70;99.90;;;;;;5090135;28;20268;-71
2022/08/05 09:41:57;;;;;;;14.90;11.07;;;18.80;99.90;;;;;;5090064;28;20202;-71
2022/08/05 09:44:34;;;;;;;15.25;10.95;;;18.70;99.90;;;;;;5089888;28;20236;-71
2022/08/05 09:47:11;;;;;;;16.58;10.82;;;18.80;99.90;;;;;;5090982;28;20206;-72
2022/08/05 09:49:44;;;;;;;13.02;10.68;;;18.80;99.90;;;;;;5094672;28;20197;-72
2022/08/05 09:52:23;;;;;;;20.02;10.65;;;18.90;99.90;;;;;;5090443;28;20205;-71
2022/08/05 09:54:59;;;;;;;13.30;10.52;;;18.70;99.90;;;;;;5088322;28;20213;-72
2022/08/05 09:57:30;;;;;;;14.93;10.93;;;18.80;99.90;;;;;;5092638;28;20193;-72
2022/08/05 09:59:59;;;;;;;14.20;10.90;;;18.90;99.90;;;;;;5080426;28;20256;-71
2022/08/05 10:02:35;;;;;;;14.18;11.18;;;18.90;99.90;;;;;;5074684;28;20275;-71
2022/08/05 10:05:11;;;;;;;17.10;11.45;;;18.90;99.90;;;;;;5077922;28;20201;-71
2022/08/05 10:07:50;;;;;;;14.45;10.18;;;18.90;99.90;;;;;;5095215;28;20263;-71
2022/08/05 10:10:18;;;;;;;14.98;10.73;;;18.80;99.90;;;;;;5094571;28;20573;-71
2022/08/05 10:12:48;;;;;;;11.55;9.15;;;18.80;99.90;;;;;;5093862;28;20194;-71
2022/08/05 10:15:24;;;;;;;13.85;10.00;;;18.80;99.90;;;;;;5094223;28;20256;-72
2022/08/05 10:18:11;;;;;;;12.07;10.30;;;18.80;99.90;;;;;;5094086;28;20199;-71
2022/08/05 10:20:41;;;;;;;15.27;11.48;;;18.90;99.90;;;;;;5087661;28;20226;-72
2022/08/05 10:23:11;;;;;;;13.23;11.00;;;18.90;99.90;;;;;;5093207;28;20198;-72
2022/08/05 10:25:38;;;;;;;12.32;10.25;;;18.90;99.90;;;;;;5074231;28;20225;-72
2022/08/05 10:28:06;;;;;;;11.27;9.43;;;19.00;99.90;;;;;;5074023;28;20218;-72
2022/08/05 10:30:34;;;;;;;14.93;10.50;;;19.00;99.90;;;;;;5074297;28;20228;-75
2022/08/05 10:33:03;;;;;;;12.75;9.48;;;19.20;99.90;;;;;;5074096;28;20232;-68
2022/08/05 10:35:31;;;;;;;13.27;10.00;;;19.00;99.90;;;;;;5074300;28;20198;-67
2022/08/05 10:38:00;;;;;;;16.08;9.63;;;19.20;99.90;;;;;;5072692;28;20198;-67
2022/08/05 10:40:32;;;;;;;11.90;9.80;;;19.20;99.90;;;;;;5073438;28;20720;-68
2022/08/05 10:43:07;;;;;;;14.68;8.90;;;19.30;99.90;;;;;;5071521;28;20528;-67
2022/08/05 10:45:35;;;;;;;12.85;8.98;;;19.30;99.90;;;;;;5090716;28;20199;-68
2022/08/05 10:48:33;;;;;;;12.15;8.75;;;19.40;99.90;;;;;;5092672;28;20216;-67
2022/08/05 10:51:05;;;;;;;14.70;9.00;;;19.20;99.90;;;;;;5085694;28;20266;-68
2022/08/05 10:53:35;;;;;;;11.93;9.57;;;19.00;99.90;;;;;;5090854;28;20647;-68
2022/08/05 10:56:03;;;;;;;12.18;8.65;;;19.00;99.90;;;;;;5073415;28;20194;-68
2022/08/05 10:58:30;;;;;;;10.27;7.95;;;18.90;99.90;;;;;;5073257;28;20206;-68
2022/08/05 11:00:57;;;;;;;9.05;6.70;;;18.90;99.90;;;;;;5073525;28;20233;-68
2022/08/05 11:03:24;;;;;;;7.05;5.63;;;18.60;99.90;;;;;;5073482;28;20577;-68
2022/08/05 11:06:08;;;;;;;7.43;4.70;;;18.70;99.90;;;;;;5072759;28;20234;-68
2022/08/05 11:08:35;;;;;;;7.22;4.40;;;18.60;99.90;;;;;;5073416;28;20285;-68
2022/08/05 11:11:34;;;;;;;6.13;3.80;;;18.50;99.90;;;;;;5071785;28;20234;-68
2022/08/05 11:14:02;;;;;;;5.55;3.60;;;18.60;99.90;;;;;;5072104;28;20216;-68
2022/08/05 11:16:30;;;;;;;7.13;3.75;;;18.50;99.90;;;;;;5073359;28;20194;-68
2022/08/05 11:19:24;;;;;;;5.20;3.78;;;18.40;99.90;;;;;;5072756;28;20291;-68
2022/08/05 11:21:52;;;;;;;7.07;3.40;;;18.40;99.90;;;;;;5064811;28;20630;-68
2022/08/05 11:24:20;;;;;;;6.30;3.75;;;18.40;99.90;;;;;;5079698;28;20238;-68
2022/08/05 11:26:47;;;;;;;6.30;3.90;;;18.40;99.90;;;;;;5093522;28;20289;-68
2022/08/05 11:29:36;;;;;;;4.88;4.18;;;18.60;99.90;;;;;;5083207;28;20209;-68
2022/08/05 11:32:26;;;;;;;6.30;4.22;;;18.50;99.90;;;;;;5072854;28;20210;-68
2022/08/05 11:34:53;;;;;;;6.47;4.72;;;18.40;99.90;;;;;;5072525;28;20205;-68
2022/08/05 11:38:05;;;;;;;6.07;4.30;;;18.50;99.90;;;;;;5073051;28;20194;-68
2022/08/05 11:40:59;;;;;;;5.70;4.95;;;18.50;99.90;;;;;;5034283;28;20262;-68
2022/08/05 11:43:26;;;;;;;6.88;4.80;;;18.60;99.90;;;;;;5072892;28;20640;-68
2022/08/05 11:45:54;;;;;;;7.32;5.13;;;18.60;99.90;;;;;;5072688;28;20198;-67
2022/08/05 11:48:21;;;;;;;7.18;4.80;;;18.60;99.90;;;;;;5070723;28;20206;-67
2022/08/05 11:50:49;;;;;;;5.13;4.25;;;18.60;99.90;;;;;;5072409;28;20679;-67
2022/08/05 11:53:17;;;;;;;6.57;5.13;;;18.70;99.90;;;;;;5070240;28;20202;-67
2022/08/05 11:56:00;;;;;;;7.78;5.10;;;18.60;99.90;;;;;;5072460;28;20669;-66
2022/08/05 11:58:30;;;;;;;9.60;5.63;;;18.70;99.90;;;;;;5070730;28;20239;-68
2022/08/05 12:01:05;;;;;;;8.18;5.32;;;18.50;99.90;;;;;;5075246;28;20562;-68
2022/08/05 12:03:42;;;;;;;6.40;5.15;;;18.60;99.90;;;;;;5072474;28;20210;-68
2022/08/05 12:06:10;;;;;;;6.80;5.72;;;18.70;99.90;;;;;;5071736;28;20194;-69
2022/08/05 12:08:42;;;;;;;6.50;5.57;;;18.70;99.90;;;;;;5072368;28;20208;-68
2022/08/05 12:11:16;;;;;;;6.25;4.93;;;18.80;99.90;;;;;;5078562;28;20220;-68
2022/08/05 12:13:53;;;;;;;7.30;4.90;;;18.80;99.90;;;;;;5090553;28;20539;-68
2022/08/05 12:16:21;;;;;;;5.78;4.78;;;18.70;99.90;;;;;;5085941;28;20561;-68
2022/08/05 12:18:48;;;;;;;8.10;5.03;;;18.70;99.90;;;;;;5088420;28;20206;-68
2022/08/05 12:21:17;;;;;;;7.82;5.28;;;18.70;99.90;;;;;;5085442;28;20699;-69
2022/08/05 12:23:54;;;;;;;7.38;5.00;;;18.60;99.90;;;;;;5073356;28;20278;-69
2022/08/05 12:26:23;;;;;;;8.50;5.18;;;18.60;99.90;;;;;;5089676;28;20606;-67
2022/08/05 12:28:50;;;;;;;6.20;4.93;;;18.80;99.90;;;;;;5088879;28;20262;-68
2022/08/05 12:31:17;;;;;;;7.35;5.07;;;18.60;99.90;;;;;;5090353;28;20570;-67
2022/08/05 12:33:45;;;;;;;6.18;4.70;;;18.60;99.90;;;;;;5092044;28;20210;-67
2022/08/05 12:36:13;;;;;;;8.05;6.30;;;18.70;99.90;;;;;;5091986;28;20257;-67
2022/08/05 12:38:41;;;;;;;8.68;6.68;;;18.90;99.90;;;;;;5084905;28;20205;-70
2022/08/05 12:41:09;;;;;;;9.70;6.45;;;19.00;99.90;;;;;;5090322;28;20679;-70
2022/08/05 12:43:51;;;;;;;7.95;6.07;;;19.00;99.90;;;;;;5085900;28;20201;-70
2022/08/05 12:46:22;;;;;;;7.80;6.25;;;18.90;99.90;;;;;;5091519;28;20667;-69
2022/08/05 12:48:57;;;;;;;5.45;4.95;;;18.60;99.90;;;;;;5081969;28;20267;-76
2022/08/05 12:51:26;;;;;;;6.57;5.00;;;18.40;99.90;;;;;;5071860;28;20244;-69